sensor_id;sensor_type;location;lat;lon;timestamp;temperature;humidity
5358;DHT22;2702;51.014;7.170;2022-11-18T00:00:14;9.40;99.90
5358;DHT22;2702;51.014;7.170;2022-11-18T00:02:40;9.40;99.90
5358;DHT22;2702;51.014;7.170;2022-11-18T00:05:06;9.40;99.90
5358;DHT22;2702;51.014;7.170;2022-11-18T00:07:31;9.40;99.90
5358;DHT22;2702;51.014;7.170;2022-11-18T00:09:57;9.40;99.90
5358;DHT22;2702;51.014;7.170;2022-11-18T00:12:23;9.30;99.90
5358;DHT22;2702;51.014;7.170;2022-11-18T00:15:07;9.40;99.90
5358;DHT22;2702;51.014;7.170;2022-11-18T00:17:33;9.40;99.90
5358;DHT22;2702;51.014;7.170;2022-11-18T00:19:59;9.40;99.90
5358;DHT22;2702;51.014;7.170;2022-11-18T00:22:25;9.40;99.90
5358;DHT22;2702;51.014;7.170;2022-11-18T00:24:51;9.40;99.90
5358;DHT22;2702;51.014;7.170;2022-11-18T00:27:17;9.40;99.90
5358;DHT22;2702;51.014;7.170;2022-11-18T00:29:42;9.30;99.90
5358;DHT22;2702;51.014;7.170;2022-11-18T00:32:08;9.30;99.90
5358;DHT22;2702;51.014;7.170;2022-11-18T00:34:34;9.30;99.90
5358;DHT22;2702;51.014;7.170;2022-11-18T00:37:00;9.30;99.90
5358;DHT22;2702;51.014;7.170;2022-11-18T00:39:26;9.20;99.90
5358;DHT22;2702;51.014;7.170;2022-11-18T00:41:52;9.20;99.90
5358;DHT22;2702;51.014;7.170;2022-11-18T00:44:36;9.20;99.90
5358;DHT22;2702;51.014;7.170;2022-11-18T00:47:02;9.20;99.90
5358;DHT22;2702;51.014;7.170;2022-11-18T00:49:28;9.30;99.90
5358;DHT22;2702;51.014;7.170;2022-11-18T00:51:54;9.20;99.90
5358;DHT22;2702;51.014;7.170;2022-11-18T00:54:20;9.20;99.90
5358;DHT22;2702;51.014;7.170;2022-11-18T00:56:46;9.20;99.90
5358;DHT22;2702;51.014;7.170;2022-11-18T00:59:12;9.10;99.90
5358;DHT22;2702;51.014;7.170;2022-11-18T01:01:37;9.10;99.90
5358;DHT22;2702;51.014;7.170;2022-11-18T01:04:03;9.10;99.90
5358;DHT22;2702;51.014;7.170;2022-11-18T01:06:29;9.10;99.90
5358;DHT22;2702;51.014;7.170;2022-11-18T01:08:55;9.10;99.90
5358;DHT22;2702;51.014;7.170;2022-11-18T01:11:21;9.10;99.90
5358;DHT22;2702;51.014;7.170;2022-11-18T01:14:05;9.10;99.90
5358;DHT22;2702;51.014;7.170;2022-11-18T01:16:31;9.10;99.90
5358;DHT22;2702;51.014;7.170;2022-11-18T01:18:57;9.10;99.90
5358;DHT22;2702;51.014;7.170;2022-11-18T01:21:23;9.10;99.90
5358;DHT22;2702;51.014;7.170;2022-11-18T01:23:49;9.10;99.90
5358;DHT22;2702;51.014;7.170;2022-11-18T01:26:16;9.10;99.90
5358;DHT22;2702;51.014;7.170;2022-11-18T01:28:42;9.10;99.90
5358;DHT22;2702;51.014;7.170;2022-11-18T01:31:11;9.00;99.90
5358;DHT22;2702;51.014;7.170;2022-11-18T01:33:38;9.10;99.90
5358;DHT22;2702;51.014;7.170;2022-11-18T01:36:04;9.20;99.90
5358;DHT22;2702;51.014;7.170;2022-11-18T01:38:37;9.20;99.90
5358;DHT22;2702;51.014;7.170;2022-11-18T01:41:03;9.20;99.90
5358;DHT22;2702;51.014;7.170;2022-11-18T01:46:12;9.10;99.90
5358;DHT22;2702;51.014;7.170;2022-11-18T01:48:37;9.10;99.90
5358;DHT22;2702;51.014;7.170;2022-11-18T01:51:10;9.20;99.90
5358;DHT22;2702;51.014;7.170;2022-11-18T01:53:40;9.30;99.90
5358;DHT22;2702;51.014;7.170;2022-11-18T01:56:11;9.30;99.90
5358;DHT22;2702;51.014;7.170;2022-11-18T02:01:13;9.10;99.90
5358;DHT22;2702;51.014;7.170;2022-11-18T02:03:40;9.10;99.90
5358;DHT22;2702;51.014;7.170;2022-11-18T02:06:07;9.20;99.90
5358;DHT22;2702;51.014;7.170;2022-11-18T02:08:35;9.10;99.90
5358;DHT22;2702;51.014;7.170;2022-11-18T02:11:09;9.10;99.90
5358;DHT22;2702;51.014;7.170;2022-11-18T02:13:57;9.10;99.90
5358;DHT22;2702;51.014;7.170;2022-11-18T02:31:25;9.10;99.90
5358;DHT22;2702;51.014;7.170;2022-11-18T02:33:38;9.10;99.90
5358;DHT22;2702;51.014;7.170;2022-11-18T02:36:12;9.00;99.90
5358;DHT22;2702;51.014;7.170;2022-11-18T02:38:44;9.00;99.90
5358;DHT22;2702;51.014;7.170;2022-11-18T02:41:19;9.00;99.90
5358;DHT22;2702;51.014;7.170;2022-11-18T02:43:57;9.10;99.90
5358;DHT22;2702;51.014;7.170;2022-11-18T02:46:30;9.10;99.90
5358;DHT22;2702;51.014;7.170;2022-11-18T02:49:00;9.10;99.90
5358;DHT22;2702;51.014;7.170;2022-11-18T02:51:28;9.00;99.90
5358;DHT22;2702;51.014;7.170;2022-11-18T02:53:57;9.00;99.90
5358;DHT22;2702;51.014;7.170;2022-11-18T02:56:25;9.00;99.90
5358;DHT22;2702;51.014;7.170;2022-11-18T02:58:52;9.10;99.90
5358;DHT22;2702;51.014;7.170;2022-11-18T03:01:25;9.10;99.90
5358;DHT22;2702;51.014;7.170;2022-11-18T03:03:52;9.10;99.90
5358;DHT22;2702;51.014;7.170;2022-11-18T03:09:34;9.00;99.90
5358;DHT22;2702;51.014;7.170;2022-11-18T03:12:18;9.00;99.90
5358;DHT22;2702;51.014;7.170;2022-11-18T03:18:05;8.90;99.90
5358;DHT22;2702;51.014;7.170;2022-11-18T03:20:36;9.00;99.90
5358;DHT22;2702;51.014;7.170;2022-11-18T03:26:01;9.00;99.90
5358;DHT22;2702;51.014;7.170;2022-11-18T03:33:39;8.80;99.90
5358;DHT22;2702;51.014;7.170;2022-11-18T03:36:10;8.80;99.90
5358;DHT22;2702;51.014;7.170;2022-11-18T03:38:41;8.90;99.90
5358;DHT22;2702;51.014;7.170;2022-11-18T03:41:10;8.80;99.90
5358;DHT22;2702;51.014;7.170;2022-11-18T03:43:44;8.80;99.90
5358;DHT22;2702;51.014;7.170;2022-11-18T03:46:22;8.90;99.90
5358;DHT22;2702;51.014;7.170;2022-11-18T03:48:54;8.90;99.90
5358;DHT22;2702;51.014;7.170;2022-11-18T03:51:34;9.00;99.90
5358;DHT22;2702;51.014;7.170;2022-11-18T03:54:29;8.90;99.90
5358;DHT22;2702;51.014;7.170;2022-11-18T03:57:12;8.90;99.90
5358;DHT22;2702;51.014;7.170;2022-11-18T03:59:50;8.90;99.90
5358;DHT22;2702;51.014;7.170;2022-11-18T04:02:20;8.90;99.90
5358;DHT22;2702;51.014;7.170;2022-11-18T04:04:50;8.90;99.90
5358;DHT22;2702;51.014;7.170;2022-11-18T04:07:37;8.90;99.90
5358;DHT22;2702;51.014;7.170;2022-11-18T04:10:10;8.90;99.90
5358;DHT22;2702;51.014;7.170;2022-11-18T04:12:43;8.80;99.90
5358;DHT22;2702;51.014;7.170;2022-11-18T04:15:10;8.90;99.90
5358;DHT22;2702;51.014;7.170;2022-11-18T04:17:40;8.90;99.90
5358;DHT22;2702;51.014;7.170;2022-11-18T04:20:08;9.00;99.90
5358;DHT22;2702;51.014;7.170;2022-11-18T04:22:37;9.00;99.90
5358;DHT22;2702;51.014;7.170;2022-11-18T04:25:03;8.90;99.90
5358;DHT22;2702;51.014;7.170;2022-11-18T04:27:29;8.90;99.90
5358;DHT22;2702;51.014;7.170;2022-11-18T04:29:54;8.90;99.90
5358;DHT22;2702;51.014;7.170;2022-11-18T04:32:20;8.90;99.90
5358;DHT22;2702;51.014;7.170;2022-11-18T04:34:46;8.90;99.90
5358;DHT22;2702;51.014;7.170;2022-11-18T04:37:12;8.90;99.90
5358;DHT22;2702;51.014;7.170;2022-11-18T04:39:38;8.90;99.90
5358;DHT22;2702;51.014;7.170;2022-11-18T04:42:04;8.90;99.90
5358;DHT22;2702;51.014;7.170;2022-11-18T04:44:31;8.90;99.90
5358;DHT22;2702;51.014;7.170;2022-11-18T04:47:00;8.90;99.90
5358;DHT22;2702;51.014;7.170;2022-11-18T04:49:26;8.90;99.90
5358;DHT22;2702;51.014;7.170;2022-11-18T04:51:53;9.00;99.90
5358;DHT22;2702;51.014;7.170;2022-11-18T04:54:20;8.90;99.90
5358;DHT22;2702;51.014;7.170;2022-11-18T04:56:47;8.90;99.90
5358;DHT22;2702;51.014;7.170;2022-11-18T04:59:16;9.00;99.90
5358;DHT22;2702;51.014;7.170;2022-11-18T05:01:42;9.00;99.90
5358;DHT22;2702;51.014;7.170;2022-11-18T05:04:15;9.00;99.90
5358;DHT22;2702;51.014;7.170;2022-11-18T05:06:41;9.10;99.90
5358;DHT22;2702;51.014;7.170;2022-11-18T05:09:08;9.10;99.90
5358;DHT22;2702;51.014;7.170;2022-11-18T05:11:34;9.10;99.90
5358;DHT22;2702;51.014;7.170;2022-11-18T05:14:18;9.10;99.90
5358;DHT22;2702;51.014;7.170;2022-11-18T05:16:44;9.10;99.90
5358;DHT22;2702;51.014;7.170;2022-11-18T05:19:11;9.10;99.90
5358;DHT22;2702;51.014;7.170;2022-11-18T05:21:37;9.10;99.90
5358;DHT22;2702;51.014;7.170;2022-11-18T05:24:04;9.10;99.90
5358;DHT22;2702;51.014;7.170;2022-11-18T05:26:30;9.10;99.90
5358;DHT22;2702;51.014;7.170;2022-11-18T05:28:56;9.10;99.90
5358;DHT22;2702;51.014;7.170;2022-11-18T05:31:22;9.00;99.90
5358;DHT22;2702;51.014;7.170;2022-11-18T05:33:48;9.00;99.90
5358;DHT22;2702;51.014;7.170;2022-11-18T05:36:17;9.00;99.90
5358;DHT22;2702;51.014;7.170;2022-11-18T05:38:44;9.00;99.90
5358;DHT22;2702;51.014;7.170;2022-11-18T05:41:10;9.00;99.90
5358;DHT22;2702;51.014;7.170;2022-11-18T05:43:56;9.00;99.90
5358;DHT22;2702;51.014;7.170;2022-11-18T05:46:22;9.10;99.90
5358;DHT22;2702;51.014;7.170;2022-11-18T05:48:48;9.20;99.90
5358;DHT22;2702;51.014;7.170;2022-11-18T05:51:13;9.20;99.90
5358;DHT22;2702;51.014;7.170;2022-11-18T05:53:39;9.30;99.90
5358;DHT22;2702;51.014;7.170;2022-11-18T05:58:36;9.40;99.90
5358;DHT22;2702;51.014;7.170;2022-11-18T06:01:04;9.40;99.90
5358;DHT22;2702;51.014;7.170;2022-11-18T06:03:33;9.40;99.90
5358;DHT22;2702;51.014;7.170;2022-11-18T06:06:02;9.40;99.90
5358;DHT22;2702;51.014;7.170;2022-11-18T06:08:34;9.40;99.90
5358;DHT22;2702;51.014;7.170;2022-11-18T06:11:02;9.50;99.90
5358;DHT22;2702;51.014;7.170;2022-11-18T06:13:33;9.50;99.90
5358;DHT22;2702;51.014;7.170;2022-11-18T06:16:01;9.50;99.90
5358;DHT22;2702;51.014;7.170;2022-11-18T06:18:30;9.60;99.90
5358;DHT22;2702;51.014;7.170;2022-11-18T06:21:02;9.70;99.90
5358;DHT22;2702;51.014;7.170;2022-11-18T06:23:32;9.70;99.90
5358;DHT22;2702;51.014;7.170;2022-11-18T06:25:59;9.80;99.90
5358;DHT22;2702;51.014;7.170;2022-11-18T06:28:26;9.80;99.90
5358;DHT22;2702;51.014;7.170;2022-11-18T06:30:52;9.90;99.90
5358;DHT22;2702;51.014;7.170;2022-11-18T06:33:18;9.90;99.90
5358;DHT22;2702;51.014;7.170;2022-11-18T06:35:44;9.90;99.90
5358;DHT22;2702;51.014;7.170;2022-11-18T06:38:10;9.90;99.90
5358;DHT22;2702;51.014;7.170;2022-11-18T06:40:36;9.90;99.90
5358;DHT22;2702;51.014;7.170;2022-11-18T06:43:10;9.90;99.90
5358;DHT22;2702;51.014;7.170;2022-11-18T06:45:58;9.90;99.90
5358;DHT22;2702;51.014;7.170;2022-11-18T06:48:43;9.90;99.90
5358;DHT22;2702;51.014;7.170;2022-11-18T06:51:09;9.90;99.90
5358;DHT22;2702;51.014;7.170;2022-11-18T06:53:35;9.90;99.90
5358;DHT22;2702;51.014;7.170;2022-11-18T06:56:03;10.00;99.90
5358;DHT22;2702;51.014;7.170;2022-11-18T06:58:29;9.90;99.90
5358;DHT22;2702;51.014;7.170;2022-11-18T07:00:55;10.00;99.90
5358;DHT22;2702;51.014;7.170;2022-11-18T07:03:21;10.00;99.90
5358;DHT22;2702;51.014;7.170;2022-11-18T07:05:46;10.00;99.90
5358;DHT22;2702;51.014;7.170;2022-11-18T07:08:12;10.00;99.90
5358;DHT22;2702;51.014;7.170;2022-11-18T07:10:38;10.00;99.90
5358;DHT22;2702;51.014;7.170;2022-11-18T07:13:04;10.10;99.90
5358;DHT22;2702;51.014;7.170;2022-11-18T07:15:30;10.10;99.90
5358;DHT22;2702;51.014;7.170;2022-11-18T07:17:55;10.20;99.90
5358;DHT22;2702;51.014;7.170;2022-11-18T07:20:21;10.20;99.90
5358;DHT22;2702;51.014;7.170;2022-11-18T07:22:51;10.30;99.90
5358;DHT22;2702;51.014;7.170;2022-11-18T07:25:18;10.30;99.90
5358;DHT22;2702;51.014;7.170;2022-11-18T07:27:44;10.30;99.90
5358;DHT22;2702;51.014;7.170;2022-11-18T07:30:11;10.30;99.90
5358;DHT22;2702;51.014;7.170;2022-11-18T07:32:37;10.40;99.90
5358;DHT22;2702;51.014;7.170;2022-11-18T07:35:06;10.40;99.90
5358;DHT22;2702;51.014;7.170;2022-11-18T07:37:32;10.40;99.90
5358;DHT22;2702;51.014;7.170;2022-11-18T07:39:57;10.50;99.90
5358;DHT22;2702;51.014;7.170;2022-11-18T07:42:24;10.50;99.90
5358;DHT22;2702;51.014;7.170;2022-11-18T07:44:50;10.50;99.90
5358;DHT22;2702;51.014;7.170;2022-11-18T07:47:16;10.50;99.90
5358;DHT22;2702;51.014;7.170;2022-11-18T07:49:42;10.50;99.90
5358;DHT22;2702;51.014;7.170;2022-11-18T07:52:08;10.50;99.90
5358;DHT22;2702;51.014;7.170;2022-11-18T07:54:33;10.50;99.90
5358;DHT22;2702;51.014;7.170;2022-11-18T07:56:59;10.60;99.90
5358;DHT22;2702;51.014;7.170;2022-11-18T07:59:25;10.60;99.90
5358;DHT22;2702;51.014;7.170;2022-11-18T08:01:51;10.60;99.90
5358;DHT22;2702;51.014;7.170;2022-11-18T08:04:17;10.60;99.90
5358;DHT22;2702;51.014;7.170;2022-11-18T08:06:43;10.60;99.90
5358;DHT22;2702;51.014;7.170;2022-11-18T08:09:09;10.50;99.90
5358;DHT22;2702;51.014;7.170;2022-11-18T08:11:35;10.60;99.90
5358;DHT22;2702;51.014;7.170;2022-11-18T08:14:01;10.60;99.90
5358;DHT22;2702;51.014;7.170;2022-11-18T08:16:27;10.60;99.90
5358;DHT22;2702;51.014;7.170;2022-11-18T08:18:53;10.50;99.90
5358;DHT22;2702;51.014;7.170;2022-11-18T08:21:21;10.60;99.90
5358;DHT22;2702;51.014;7.170;2022-11-18T08:23:52;10.40;99.90
5358;DHT22;2702;51.014;7.170;2022-11-18T08:26:18;10.40;99.90
5358;DHT22;2702;51.014;7.170;2022-11-18T08:28:45;10.40;99.90
5358;DHT22;2702;51.014;7.170;2022-11-18T08:31:15;10.40;99.90
5358;DHT22;2702;51.014;7.170;2022-11-18T08:33:41;10.40;99.90
5358;DHT22;2702;51.014;7.170;2022-11-18T08:36:11;10.40;99.90
5358;DHT22;2702;51.014;7.170;2022-11-18T08:38:39;10.40;99.90
5358;DHT22;2702;51.014;7.170;2022-11-18T08:41:05;10.40;99.90
5358;DHT22;2702;51.014;7.170;2022-11-18T08:43:35;10.50;99.90
5358;DHT22;2702;51.014;7.170;2022-11-18T08:46:01;10.50;99.90
5358;DHT22;2702;51.014;7.170;2022-11-18T08:48:27;10.40;99.90
5358;DHT22;2702;51.014;7.170;2022-11-18T08:50:53;10.50;99.90
5358;DHT22;2702;51.014;7.170;2022-11-18T08:53:19;10.50;99.90
5358;DHT22;2702;51.014;7.170;2022-11-18T08:55:45;10.50;99.90
5358;DHT22;2702;51.014;7.170;2022-11-18T08:58:11;10.50;99.90
5358;DHT22;2702;51.014;7.170;2022-11-18T09:00:37;10.50;99.90
5358;DHT22;2702;51.014;7.170;2022-11-18T09:03:03;10.60;99.90
5358;DHT22;2702;51.014;7.170;2022-11-18T09:05:29;10.50;99.90
5358;DHT22;2702;51.014;7.170;2022-11-18T09:07:54;10.60;99.90
5358;DHT22;2702;51.014;7.170;2022-11-18T09:10:20;10.60;99.90
5358;DHT22;2702;51.014;7.170;2022-11-18T09:12:46;10.70;99.90
5358;DHT22;2702;51.014;7.170;2022-11-18T09:15:12;10.70;99.90
5358;DHT22;2702;51.014;7.170;2022-11-18T09:17:37;10.80;99.90
5358;DHT22;2702;51.014;7.170;2022-11-18T09:20:04;10.80;99.90
5358;DHT22;2702;51.014;7.170;2022-11-18T09:22:30;10.80;99.90
5358;DHT22;2702;51.014;7.170;2022-11-18T09:24:55;10.90;99.90
5358;DHT22;2702;51.014;7.170;2022-11-18T09:27:21;11.00;99.90
5358;DHT22;2702;51.014;7.170;2022-11-18T09:29:47;11.00;99.90
5358;DHT22;2702;51.014;7.170;2022-11-18T09:32:13;11.00;99.90
5358;DHT22;2702;51.014;7.170;2022-11-18T09:34:39;11.00;99.90
5358;DHT22;2702;51.014;7.170;2022-11-18T09:37:05;11.10;99.90
5358;DHT22;2702;51.014;7.170;2022-11-18T09:39:34;11.10;99.90
5358;DHT22;2702;51.014;7.170;2022-11-18T09:45:06;11.30;99.90
5358;DHT22;2702;51.014;7.170;2022-11-18T09:47:35;11.00;99.90
5358;DHT22;2702;51.014;7.170;2022-11-18T09:50:09;11.00;99.90
5358;DHT22;2702;51.014;7.170;2022-11-18T09:52:43;11.00;99.90
5358;DHT22;2702;51.014;7.170;2022-11-18T09:55:14;10.90;99.90
5358;DHT22;2702;51.014;7.170;2022-11-18T09:57:56;10.90;99.90
5358;DHT22;2702;51.014;7.170;2022-11-18T10:00:26;10.90;99.90
5358;DHT22;2702;51.014;7.170;2022-11-18T10:03:01;10.90;99.90
5358;DHT22;2702;51.014;7.170;2022-11-18T10:05:28;10.60;99.90
5358;DHT22;2702;51.014;7.170;2022-11-18T10:16:41;10.50;99.90
5358;DHT22;2702;51.014;7.170;2022-11-18T10:21:58;10.20;99.90
5358;DHT22;2702;51.014;7.170;2022-11-18T10:24:32;10.20;99.90
5358;DHT22;2702;51.014;7.170;2022-11-18T10:26:59;10.00;99.90
5358;DHT22;2702;51.014;7.170;2022-11-18T10:29:26;10.20;99.90
5358;DHT22;2702;51.014;7.170;2022-11-18T10:32:06;10.30;99.90
5358;DHT22;2702;51.014;7.170;2022-11-18T10:34:34;10.50;99.90
5358;DHT22;2702;51.014;7.170;2022-11-18T10:37:31;10.50;99.90
5358;DHT22;2702;51.014;7.170;2022-11-18T10:39:59;10.60;99.90
5358;DHT22;2702;51.014;7.170;2022-11-18T10:42:28;10.60;99.90
5358;DHT22;2702;51.014;7.170;2022-11-18T10:48:09;10.80;99.90
5358;DHT22;2702;51.014;7.170;2022-11-18T10:50:46;10.90;99.90
5358;DHT22;2702;51.014;7.170;2022-11-18T10:53:31;10.80;99.90
5358;DHT22;2702;51.014;7.170;2022-11-18T10:58:25;10.90;99.90
5358;DHT22;2702;51.014;7.170;2022-11-18T11:00:52;11.10;99.90
5358;DHT22;2702;51.014;7.170;2022-11-18T11:03:26;11.20;99.90
5358;DHT22;2702;51.014;7.170;2022-11-18T11:06:27;11.30;99.90
5358;DHT22;2702;51.014;7.170;2022-11-18T11:09:00;11.50;99.90
5358;DHT22;2702;51.014;7.170;2022-11-18T11:11:33;11.70;99.90
5358;DHT22;2702;51.014;7.170;2022-11-18T11:20:04;11.90;99.90
5358;DHT22;2702;51.014;7.170;2022-11-18T11:22:31;11.90;99.90
5358;DHT22;2702;51.014;7.170;2022-11-18T11:24:58;11.90;99.90
5358;DHT22;2702;51.014;7.170;2022-11-18T11:35:06;12.10;99.90
5358;DHT22;2702;51.014;7.170;2022-11-18T11:40:31;12.20;99.90
5358;DHT22;2702;51.014;7.170;2022-11-18T11:46:18;12.20;99.90
5358;DHT22;2702;51.014;7.170;2022-11-18T11:52:48;12.40;99.90
5358;DHT22;2702;51.014;7.170;2022-11-18T11:55:38;12.60;99.90
5358;DHT22;2702;51.014;7.170;2022-11-18T11:58:31;12.60;99.90
5358;DHT22;2702;51.014;7.170;2022-11-18T12:04:22;12.90;99.90
5358;DHT22;2702;51.014;7.170;2022-11-18T12:06:52;12.70;99.90
5358;DHT22;2702;51.014;7.170;2022-11-18T12:12:18;12.70;99.90
5358;DHT22;2702;51.014;7.170;2022-11-18T12:23:31;12.30;99.90
5358;DHT22;2702;51.014;7.170;2022-11-18T12:26:08;12.30;99.90
5358;DHT22;2702;51.014;7.170;2022-11-18T12:28:43;12.00;99.90
5358;DHT22;2702;51.014;7.170;2022-11-18T12:33:48;11.40;99.90
5358;DHT22;2702;51.014;7.170;2022-11-18T12:38:58;11.30;99.90
5358;DHT22;2702;51.014;7.170;2022-11-18T12:44:26;11.50;99.90
5358;DHT22;2702;51.014;7.170;2022-11-18T12:46:57;11.60;99.90
5358;DHT22;2702;51.014;7.170;2022-11-18T12:51:51;11.70;99.90
5358;DHT22;2702;51.014;7.170;2022-11-18T12:54:37;11.70;99.90
5358;DHT22;2702;51.014;7.170;2022-11-18T12:59:38;11.70;99.90
5358;DHT22;2702;51.014;7.170;2022-11-18T13:04:40;11.50;99.90
5358;DHT22;2702;51.014;7.170;2022-11-18T13:07:09;11.50;99.90
5358;DHT22;2702;51.014;7.170;2022-11-18T13:09:56;11.50;99.90
5358;DHT22;2702;51.014;7.170;2022-11-18T13:12:25;11.50;99.90
5358;DHT22;2702;51.014;7.170;2022-11-18T13:14:51;11.30;99.90
5358;DHT22;2702;51.014;7.170;2022-11-18T13:17:38;11.20;99.90
5358;DHT22;2702;51.014;7.170;2022-11-18T13:20:38;11.10;99.90
5358;DHT22;2702;51.014;7.170;2022-11-18T13:26:06;10.90;99.90
5358;DHT22;2702;51.014;7.170;2022-11-18T13:29:00;10.80;99.90
5358;DHT22;2702;51.014;7.170;2022-11-18T13:34:26;10.60;99.90
5358;DHT22;2702;51.014;7.170;2022-11-18T13:36:54;10.40;99.90
5358;DHT22;2702;51.014;7.170;2022-11-18T13:39:28;10.30;99.90
5358;DHT22;2702;51.014;7.170;2022-11-18T13:44:28;10.50;99.90
5358;DHT22;2702;51.014;7.170;2022-11-18T13:55:15;10.40;99.90
5358;DHT22;2702;51.014;7.170;2022-11-18T13:57:50;10.40;99.90
5358;DHT22;2702;51.014;7.170;2022-11-18T14:00:28;10.40;99.90
5358;DHT22;2702;51.014;7.170;2022-11-18T14:05:52;10.40;99.90
5358;DHT22;2702;51.014;7.170;2022-11-18T14:08:33;10.30;99.90
5358;DHT22;2702;51.014;7.170;2022-11-18T14:10:59;10.30;99.90
5358;DHT22;2702;51.014;7.170;2022-11-18T14:18:45;10.50;99.90
5358;DHT22;2702;51.014;7.170;2022-11-18T14:21:12;10.50;99.90
5358;DHT22;2702;51.014;7.170;2022-11-18T14:23:42;10.60;99.90
5358;DHT22;2702;51.014;7.170;2022-11-18T14:26:09;10.60;99.90
5358;DHT22;2702;51.014;7.170;2022-11-18T14:28:36;10.70;99.90
5358;DHT22;2702;51.014;7.170;2022-11-18T14:31:06;10.80;99.90
5358;DHT22;2702;51.014;7.170;2022-11-18T14:34:26;10.80;99.90
5358;DHT22;2702;51.014;7.170;2022-11-18T14:36:53;11.00;99.90
5358;DHT22;2702;51.014;7.170;2022-11-18T14:39:30;11.00;99.90
5358;DHT22;2702;51.014;7.170;2022-11-18T14:41:57;11.10;99.90
5358;DHT22;2702;51.014;7.170;2022-11-18T14:44:26;11.10;99.90
5358;DHT22;2702;51.014;7.170;2022-11-18T14:46:54;11.10;99.90
5358;DHT22;2702;51.014;7.170;2022-11-18T14:49:23;11.10;99.90
5358;DHT22;2702;51.014;7.170;2022-11-18T14:51:50;11.30;99.90
5358;DHT22;2702;51.014;7.170;2022-11-18T14:54:18;11.40;99.90
5358;DHT22;2702;51.014;7.170;2022-11-18T14:56:46;11.60;99.90
5358;DHT22;2702;51.014;7.170;2022-11-18T14:59:14;11.70;99.90
5358;DHT22;2702;51.014;7.170;2022-11-18T15:01:41;11.70;99.90
5358;DHT22;2702;51.014;7.170;2022-11-18T15:04:07;11.70;99.90
5358;DHT22;2702;51.014;7.170;2022-11-18T15:06:34;11.80;99.90
5358;DHT22;2702;51.014;7.170;2022-11-18T15:09:00;11.80;99.90
5358;DHT22;2702;51.014;7.170;2022-11-18T15:11:26;11.90;99.90
5358;DHT22;2702;51.014;7.170;2022-11-18T15:13:52;11.90;99.90
5358;DHT22;2702;51.014;7.170;2022-11-18T15:16:22;11.90;99.90
5358;DHT22;2702;51.014;7.170;2022-11-18T15:18:51;12.00;99.90
5358;DHT22;2702;51.014;7.170;2022-11-18T15:21:18;11.90;99.90
5358;DHT22;2702;51.014;7.170;2022-11-18T15:23:44;11.90;99.90
5358;DHT22;2702;51.014;7.170;2022-11-18T15:28:48;11.70;99.90
5358;DHT22;2702;51.014;7.170;2022-11-18T15:31:15;11.60;99.90
5358;DHT22;2702;51.014;7.170;2022-11-18T15:33:41;11.50;99.90
5358;DHT22;2702;51.014;7.170;2022-11-18T15:36:18;11.50;99.90
5358;DHT22;2702;51.014;7.170;2022-11-18T15:38:44;11.50;99.90
5358;DHT22;2702;51.014;7.170;2022-11-18T15:41:21;11.40;99.90
5358;DHT22;2702;51.014;7.170;2022-11-18T15:43:48;11.20;99.90
5358;DHT22;2702;51.014;7.170;2022-11-18T15:46:16;11.20;99.90
5358;DHT22;2702;51.014;7.170;2022-11-18T15:48:44;11.30;99.90
5358;DHT22;2702;51.014;7.170;2022-11-18T15:51:10;11.30;99.90
5358;DHT22;2702;51.014;7.170;2022-11-18T15:53:36;11.20;99.90
5358;DHT22;2702;51.014;7.170;2022-11-18T15:59:10;11.20;99.90
5358;DHT22;2702;51.014;7.170;2022-11-18T16:01:41;11.20;99.90
5358;DHT22;2702;51.014;7.170;2022-11-18T16:04:10;11.20;99.90
5358;DHT22;2702;51.014;7.170;2022-11-18T16:06:36;11.20;99.90
5358;DHT22;2702;51.014;7.170;2022-11-18T16:09:04;11.10;99.90
5358;DHT22;2702;51.014;7.170;2022-11-18T16:11:30;11.10;99.90
5358;DHT22;2702;51.014;7.170;2022-11-18T16:14:16;11.10;99.90
5358;DHT22;2702;51.014;7.170;2022-11-18T16:16:44;11.00;99.90
5358;DHT22;2702;51.014;7.170;2022-11-18T16:19:13;11.00;99.90
5358;DHT22;2702;51.014;7.170;2022-11-18T16:21:42;10.90;99.90
5358;DHT22;2702;51.014;7.170;2022-11-18T16:24:11;10.90;99.90
5358;DHT22;2702;51.014;7.170;2022-11-18T16:26:38;10.80;99.90
5358;DHT22;2702;51.014;7.170;2022-11-18T16:29:05;10.80;99.90
5358;DHT22;2702;51.014;7.170;2022-11-18T16:31:32;10.70;99.90
5358;DHT22;2702;51.014;7.170;2022-11-18T16:36:48;10.60;99.90
5358;DHT22;2702;51.014;7.170;2022-11-18T16:39:17;10.60;99.90
5358;DHT22;2702;51.014;7.170;2022-11-18T16:41:44;10.60;99.90
5358;DHT22;2702;51.014;7.170;2022-11-18T16:44:13;10.60;99.90
5358;DHT22;2702;51.014;7.170;2022-11-18T16:46:41;10.50;99.90
5358;DHT22;2702;51.014;7.170;2022-11-18T16:49:11;10.50;99.90
5358;DHT22;2702;51.014;7.170;2022-11-18T16:51:40;10.40;99.90
5358;DHT22;2702;51.014;7.170;2022-11-18T16:54:13;10.40;99.90
5358;DHT22;2702;51.014;7.170;2022-11-18T16:56:41;10.30;99.90
5358;DHT22;2702;51.014;7.170;2022-11-18T16:59:12;10.30;99.90
5358;DHT22;2702;51.014;7.170;2022-11-18T17:01:38;10.30;99.90
5358;DHT22;2702;51.014;7.170;2022-11-18T17:04:06;10.20;99.90
5358;DHT22;2702;51.014;7.170;2022-11-18T17:06:32;10.10;99.90
5358;DHT22;2702;51.014;7.170;2022-11-18T17:08:58;10.10;99.90
5358;DHT22;2702;51.014;7.170;2022-11-18T17:11:24;10.10;99.90
5358;DHT22;2702;51.014;7.170;2022-11-18T17:13:50;10.00;99.90
5358;DHT22;2702;51.014;7.170;2022-11-18T17:16:19;10.00;99.90
5358;DHT22;2702;51.014;7.170;2022-11-18T17:18:45;9.90;99.90
5358;DHT22;2702;51.014;7.170;2022-11-18T17:21:14;9.90;99.90
5358;DHT22;2702;51.014;7.170;2022-11-18T17:23:43;9.80;99.90
5358;DHT22;2702;51.014;7.170;2022-11-18T17:26:09;9.70;99.90
5358;DHT22;2702;51.014;7.170;2022-11-18T17:28:39;9.70;99.90
5358;DHT22;2702;51.014;7.170;2022-11-18T17:31:13;9.70;99.90
5358;DHT22;2702;51.014;7.170;2022-11-18T17:33:40;9.60;99.90
5358;DHT22;2702;51.014;7.170;2022-11-18T17:36:08;9.50;99.90
5358;DHT22;2702;51.014;7.170;2022-11-18T17:38:37;9.40;99.90
5358;DHT22;2702;51.014;7.170;2022-11-18T17:41:04;9.50;99.90
5358;DHT22;2702;51.014;7.170;2022-11-18T17:43:31;9.40;99.90
5358;DHT22;2702;51.014;7.170;2022-11-18T17:45:58;9.50;99.90
5358;DHT22;2702;51.014;7.170;2022-11-18T17:48:29;9.50;99.90
5358;DHT22;2702;51.014;7.170;2022-11-18T17:51:05;9.50;99.90
5358;DHT22;2702;51.014;7.170;2022-11-18T17:53:31;9.50;99.90
5358;DHT22;2702;51.014;7.170;2022-11-18T17:55:57;9.40;99.90
5358;DHT22;2702;51.014;7.170;2022-11-18T17:58:23;9.40;99.90
5358;DHT22;2702;51.014;7.170;2022-11-18T18:00:49;9.40;99.90
5358;DHT22;2702;51.014;7.170;2022-11-18T18:03:15;9.40;99.90
5358;DHT22;2702;51.014;7.170;2022-11-18T18:05:40;9.40;99.90
5358;DHT22;2702;51.014;7.170;2022-11-18T18:08:06;9.30;99.90
5358;DHT22;2702;51.014;7.170;2022-11-18T18:10:37;9.40;99.90
5358;DHT22;2702;51.014;7.170;2022-11-18T18:13:08;9.50;99.90
5358;DHT22;2702;51.014;7.170;2022-11-18T18:15:59;9.50;99.90
5358;DHT22;2702;51.014;7.170;2022-11-18T18:18:25;9.50;99.90
5358;DHT22;2702;51.014;7.170;2022-11-18T18:20:51;9.60;99.90
5358;DHT22;2702;51.014;7.170;2022-11-18T18:23:17;9.60;99.90
5358;DHT22;2702;51.014;7.170;2022-11-18T18:25:43;9.60;99.90
5358;DHT22;2702;51.014;7.170;2022-11-18T18:28:09;9.60;99.90
5358;DHT22;2702;51.014;7.170;2022-11-18T18:30:35;9.50;99.90
5358;DHT22;2702;51.014;7.170;2022-11-18T18:33:00;9.50;99.90
5358;DHT22;2702;51.014;7.170;2022-11-18T18:35:26;9.40;99.90
5358;DHT22;2702;51.014;7.170;2022-11-18T18:37:52;9.50;99.90
5358;DHT22;2702;51.014;7.170;2022-11-18T18:40:18;9.40;99.90
5358;DHT22;2702;51.014;7.170;2022-11-18T18:42:44;9.30;99.90
5358;DHT22;2702;51.014;7.170;2022-11-18T18:45:10;9.20;99.90
5358;DHT22;2702;51.014;7.170;2022-11-18T18:47:54;9.20;99.90